sensor_id;sensor_type;location;lat;lon;timestamp;P1;durP1;ratioP1;P2;durP2;ratioP2
76589;SDS011;65471;55.908;37.880;2023-03-01T00:01:12;7.70;;;2.13;;
76589;SDS011;65471;55.908;37.880;2023-03-01T00:03:44;4.60;;;1.95;;
76589;SDS011;65471;55.908;37.880;2023-03-01T00:06:11;8.02;;;2.33;;
76589;SDS011;65471;55.908;37.880;2023-03-01T00:08:38;3.90;;;1.60;;
76589;SDS011;65471;55.908;37.880;2023-03-01T00:11:07;1.63;;;1.50;;
76589;SDS011;65471;55.908;37.880;2023-03-01T00:13:46;3.50;;;1.85;;
76589;SDS011;65471;55.908;37.880;2023-03-01T00:16:16;15.63;;;2.30;;
76589;SDS011;65471;55.908;37.880;2023-03-01T00:18:44;6.25;;;2.17;;
76589;SDS011;65471;55.908;37.880;2023-03-01T00:21:12;6.57;;;2.90;;
76589;SDS011;65471;55.908;37.880;2023-03-01T00:23:39;2.15;;;1.90;;
76589;SDS011;65471;55.908;37.880;2023-03-01T00:26:07;2.50;;;2.30;;
76589;SDS011;65471;55.908;37.880;2023-03-01T00:28:35;4.05;;;2.30;;
76589;SDS011;65471;55.908;37.880;2023-03-01T00:31:03;3.58;;;1.77;;
76589;SDS011;65471;55.908;37.880;2023-03-01T00:33:31;6.63;;;2.42;;
76589;SDS011;65471;55.908;37.880;2023-03-01T00:35:58;5.65;;;4.55;;
76589;SDS011;65471;55.908;37.880;2023-03-01T00:38:25;4.38;;;2.15;;
76589;SDS011;65471;55.908;37.880;2023-03-01T00:40:53;5.60;;;2.22;;
76589;SDS011;65471;55.908;37.880;2023-03-01T00:43:21;2.23;;;1.73;;
76589;SDS011;65471;55.908;37.880;2023-03-01T00:45:49;2.70;;;2.15;;
76589;SDS011;65471;55.908;37.880;2023-03-01T00:48:16;2.60;;;2.33;;
76589;SDS011;65471;55.908;37.880;2023-03-01T00:50:43;5.18;;;1.90;;
76589;SDS011;65471;55.908;37.880;2023-03-01T00:53:10;6.70;;;3.10;;
76589;SDS011;65471;55.908;37.880;2023-03-01T00:55:36;3.47;;;1.90;;
76589;SDS011;65471;55.908;37.880;2023-03-01T00:58:04;1.55;;;1.40;;
76589;SDS011;65471;55.908;37.880;2023-03-01T01:00:31;5.10;;;1.83;;
76589;SDS011;65471;55.908;37.880;2023-03-01T01:02:58;4.57;;;1.80;;
76589;SDS011;65471;55.908;37.880;2023-03-01T01:05:25;5.07;;;2.75;;
76589;SDS011;65471;55.908;37.880;2023-03-01T01:07:52;2.33;;;1.90;;
76589;SDS011;65471;55.908;37.880;2023-03-01T01:10:18;4.10;;;2.00;;
76589;SDS011;65471;55.908;37.880;2023-03-01T01:12:47;2.72;;;1.70;;
76589;SDS011;65471;55.908;37.880;2023-03-01T01:15:14;1.90;;;1.80;;
76589;SDS011;65471;55.908;37.880;2023-03-01T01:17:42;8.70;;;1.63;;
76589;SDS011;65471;55.908;37.880;2023-03-01T01:20:10;2.88;;;1.67;;
76589;SDS011;65471;55.908;37.880;2023-03-01T01:22:37;1.52;;;1.42;;
76589;SDS011;65471;55.908;37.880;2023-03-01T01:25:04;3.22;;;1.33;;
76589;SDS011;65471;55.908;37.880;2023-03-01T01:27:31;1.52;;;1.27;;
76589;SDS011;65471;55.908;37.880;2023-03-01T01:29:58;1.58;;;1.45;;
76589;SDS011;65471;55.908;37.880;2023-03-01T01:32:25;1.45;;;1.30;;
76589;SDS011;65471;55.908;37.880;2023-03-01T01:34:52;1.55;;;1.38;;
76589;SDS011;65471;55.908;37.880;2023-03-01T01:37:19;4.57;;;1.48;;
76589;SDS011;65471;55.908;37.880;2023-03-01T01:39:46;7.72;;;1.77;;
76589;SDS011;65471;55.908;37.880;2023-03-01T01:42:16;3.47;;;1.45;;
76589;SDS011;65471;55.908;37.880;2023-03-01T01:44:45;3.40;;;1.08;;
76589;SDS011;65471;55.908;37.880;2023-03-01T01:47:17;1.85;;;1.63;;
76589;SDS011;65471;55.908;37.880;2023-03-01T01:49:48;1.50;;;1.25;;
76589;SDS011;65471;55.908;37.880;2023-03-01T01:52:21;5.45;;;1.52;;
76589;SDS011;65471;55.908;37.880;2023-03-01T01:54:59;4.03;;;1.42;;
76589;SDS011;65471;55.908;37.880;2023-03-01T01:57:36;2.95;;;1.52;;
76589;SDS011;65471;55.908;37.880;2023-03-01T02:02:59;4.03;;;1.83;;
76589;SDS011;65471;55.908;37.880;2023-03-01T02:05:32;1.48;;;1.38;;
76589;SDS011;65471;55.908;37.880;2023-03-01T02:08:07;5.15;;;1.23;;
76589;SDS011;65471;55.908;37.880;2023-03-01T02:10:35;1.27;;;1.17;;
76589;SDS011;65471;55.908;37.880;2023-03-01T02:13:04;2.22;;;1.52;;
76589;SDS011;65471;55.908;37.880;2023-03-01T02:15:34;3.83;;;1.50;;
76589;SDS011;65471;55.908;37.880;2023-03-01T02:18:03;4.22;;;1.00;;
76589;SDS011;65471;55.908;37.880;2023-03-01T02:23:06;1.73;;;1.55;;
76589;SDS011;65471;55.908;37.880;2023-03-01T02:25:44;1.30;;;1.20;;
76589;SDS011;65471;55.908;37.880;2023-03-01T02:28:21;1.85;;;1.50;;
76589;SDS011;65471;55.908;37.880;2023-03-01T02:30:50;4.10;;;1.50;;
76589;SDS011;65471;55.908;37.880;2023-03-01T02:33:36;2.95;;;1.42;;
76589;SDS011;65471;55.908;37.880;2023-03-01T02:36:06;4.22;;;1.52;;
76589;SDS011;65471;55.908;37.880;2023-03-01T02:38:36;1.50;;;1.40;;
76589;SDS011;65471;55.908;37.880;2023-03-01T02:41:03;1.40;;;1.00;;
76589;SDS011;65471;55.908;37.880;2023-03-01T02:43:33;6.70;;;1.50;;
76589;SDS011;65471;55.908;37.880;2023-03-01T02:46:16;2.47;;;1.47;;
76589;SDS011;65471;55.908;37.880;2023-03-01T02:48:48;2.00;;;1.15;;
76589;SDS011;65471;55.908;37.880;2023-03-01T02:51:38;3.72;;;1.30;;
76589;SDS011;65471;55.908;37.880;2023-03-01T02:57:07;1.75;;;1.20;;
76589;SDS011;65471;55.908;37.880;2023-03-01T02:59:35;2.57;;;1.77;;
76589;SDS011;65471;55.908;37.880;2023-03-01T03:02:07;7.55;;;1.50;;
76589;SDS011;65471;55.908;37.880;2023-03-01T03:04:46;2.72;;;1.63;;
76589;SDS011;65471;55.908;37.880;2023-03-01T03:07:13;1.50;;;1.40;;
76589;SDS011;65471;55.908;37.880;2023-03-01T03:09:40;5.60;;;1.48;;
76589;SDS011;65471;55.908;37.880;2023-03-01T03:12:07;5.00;;;1.30;;
76589;SDS011;65471;55.908;37.880;2023-03-01T03:14:33;2.47;;;1.65;;
76589;SDS011;65471;55.908;37.880;2023-03-01T03:17:01;3.70;;;1.17;;
76589;SDS011;65471;55.908;37.880;2023-03-01T03:19:32;5.10;;;1.75;;
76589;SDS011;65471;55.908;37.880;2023-03-01T03:21:59;4.22;;;1.63;;
76589;SDS011;65471;55.908;37.880;2023-03-01T03:24:26;12.88;;;2.17;;
76589;SDS011;65471;55.908;37.880;2023-03-01T03:27:04;3.70;;;1.48;;
76589;SDS011;65471;55.908;37.880;2023-03-01T03:29:32;1.58;;;1.38;;
76589;SDS011;65471;55.908;37.880;2023-03-01T03:31:59;3.20;;;2.10;;
76589;SDS011;65471;55.908;37.880;2023-03-01T03:34:26;2.45;;;1.63;;
76589;SDS011;65471;55.908;37.880;2023-03-01T03:36:55;4.00;;;2.03;;
76589;SDS011;65471;55.908;37.880;2023-03-01T03:39:26;9.38;;;1.85;;
76589;SDS011;65471;55.908;37.880;2023-03-01T03:41:53;1.77;;;1.67;;
76589;SDS011;65471;55.908;37.880;2023-03-01T03:44:20;1.50;;;1.40;;
76589;SDS011;65471;55.908;37.880;2023-03-01T03:46:47;7.97;;;2.15;;
76589;SDS011;65471;55.908;37.880;2023-03-01T03:49:14;2.17;;;1.45;;
76589;SDS011;65471;55.908;37.880;2023-03-01T03:51:41;2.72;;;1.20;;
76589;SDS011;65471;55.908;37.880;2023-03-01T03:54:08;3.15;;;1.50;;
76589;SDS011;65471;55.908;37.880;2023-03-01T03:56:34;11.18;;;2.15;;
76589;SDS011;65471;55.908;37.880;2023-03-01T03:59:01;8.68;;;1.92;;
76589;SDS011;65471;55.908;37.880;2023-03-01T04:01:28;1.70;;;1.60;;
76589;SDS011;65471;55.908;37.880;2023-03-01T04:03:55;3.47;;;1.50;;
76589;SDS011;65471;55.908;37.880;2023-03-01T04:06:22;1.98;;;1.55;;
76589;SDS011;65471;55.908;37.880;2023-03-01T04:08:48;1.35;;;1.33;;
76589;SDS011;65471;55.908;37.880;2023-03-01T04:11:17;4.60;;;2.10;;
76589;SDS011;65471;55.908;37.880;2023-03-01T04:13:54;1.05;;;1.02;;
76589;SDS011;65471;55.908;37.880;2023-03-01T04:16:23;3.15;;;1.80;;
76589;SDS011;65471;55.908;37.880;2023-03-01T04:18:51;4.80;;;2.38;;
76589;SDS011;65471;55.908;37.880;2023-03-01T04:21:19;2.25;;;1.38;;
76589;SDS011;65471;55.908;37.880;2023-03-01T04:23:47;6.15;;;1.73;;
76589;SDS011;65471;55.908;37.880;2023-03-01T04:26:14;6.25;;;1.92;;
76589;SDS011;65471;55.908;37.880;2023-03-01T04:28:41;3.63;;;1.60;;
76589;SDS011;65471;55.908;37.880;2023-03-01T04:31:13;7.50;;;1.85;;
76589;SDS011;65471;55.908;37.880;2023-03-01T04:33:46;2.92;;;1.63;;
76589;SDS011;65471;55.908;37.880;2023-03-01T04:36:15;7.28;;;1.77;;
76589;SDS011;65471;55.908;37.880;2023-03-01T04:38:43;5.85;;;1.50;;
76589;SDS011;65471;55.908;37.880;2023-03-01T04:41:14;2.10;;;1.90;;
76589;SDS011;65471;55.908;37.880;2023-03-01T04:43:43;1.50;;;1.40;;
76589;SDS011;65471;55.908;37.880;2023-03-01T04:46:14;3.85;;;2.05;;
76589;SDS011;65471;55.908;37.880;2023-03-01T04:48:43;1.73;;;1.63;;
76589;SDS011;65471;55.908;37.880;2023-03-01T04:51:13;3.92;;;1.48;;
76589;SDS011;65471;55.908;37.880;2023-03-01T04:53:42;6.30;;;1.83;;
76589;SDS011;65471;55.908;37.880;2023-03-01T04:56:09;2.13;;;1.33;;
76589;SDS011;65471;55.908;37.880;2023-03-01T04:58:36;2.30;;;1.90;;
76589;SDS011;65471;55.908;37.880;2023-03-01T05:01:08;1.70;;;1.55;;
76589;SDS011;65471;55.908;37.880;2023-03-01T05:03:42;1.73;;;1.60;;
76589;SDS011;65471;55.908;37.880;2023-03-01T05:06:14;7.63;;;2.23;;
76589;SDS011;65471;55.908;37.880;2023-03-01T05:08:42;9.33;;;1.67;;
76589;SDS011;65471;55.908;37.880;2023-03-01T05:11:10;6.63;;;2.28;;
76589;SDS011;65471;55.908;37.880;2023-03-01T05:13:37;2.97;;;1.92;;
76589;SDS011;65471;55.908;37.880;2023-03-01T05:16:06;5.25;;;2.00;;
76589;SDS011;65471;55.908;37.880;2023-03-01T05:18:38;3.00;;;2.08;;
76589;SDS011;65471;55.908;37.880;2023-03-01T05:21:06;4.38;;;1.70;;
76589;SDS011;65471;55.908;37.880;2023-03-01T05:23:35;5.13;;;1.90;;
76589;SDS011;65471;55.908;37.880;2023-03-01T05:26:03;4.60;;;2.00;;
76589;SDS011;65471;55.908;37.880;2023-03-01T05:28:36;7.25;;;2.17;;
76589;SDS011;65471;55.908;37.880;2023-03-01T05:31:04;1.83;;;1.73;;
76589;SDS011;65471;55.908;37.880;2023-03-01T05:33:36;3.35;;;1.92;;
76589;SDS011;65471;55.908;37.880;2023-03-01T05:36:04;1.60;;;1.50;;
76589;SDS011;65471;55.908;37.880;2023-03-01T05:38:32;3.95;;;1.95;;
76589;SDS011;65471;55.908;37.880;2023-03-01T05:41:00;2.90;;;1.85;;
76589;SDS011;65471;55.908;37.880;2023-03-01T05:43:28;4.63;;;1.88;;
76589;SDS011;65471;55.908;37.880;2023-03-01T05:46:00;3.72;;;1.83;;
76589;SDS011;65471;55.908;37.880;2023-03-01T05:48:27;4.63;;;1.95;;
76589;SDS011;65471;55.908;37.880;2023-03-01T05:50:54;4.45;;;1.88;;
76589;SDS011;65471;55.908;37.880;2023-03-01T05:53:20;13.43;;;2.05;;
76589;SDS011;65471;55.908;37.880;2023-03-01T05:55:47;7.30;;;2.08;;
76589;SDS011;65471;55.908;37.880;2023-03-01T05:58:17;4.28;;;1.90;;
76589;SDS011;65471;55.908;37.880;2023-03-01T06:00:46;2.55;;;2.10;;
76589;SDS011;65471;55.908;37.880;2023-03-01T06:03:15;3.85;;;2.03;;
76589;SDS011;65471;55.908;37.880;2023-03-01T06:05:43;5.93;;;1.85;;
76589;SDS011;65471;55.908;37.880;2023-03-01T06:08:11;3.50;;;1.75;;
76589;SDS011;65471;55.908;37.880;2023-03-01T06:10:39;6.05;;;1.90;;
76589;SDS011;65471;55.908;37.880;2023-03-01T06:13:07;3.38;;;1.85;;
76589;SDS011;65471;55.908;37.880;2023-03-01T06:15:34;4.75;;;2.20;;
76589;SDS011;65471;55.908;37.880;2023-03-01T06:18:01;5.70;;;2.10;;
76589;SDS011;65471;55.908;37.880;2023-03-01T06:20:28;4.68;;;2.20;;
76589;SDS011;65471;55.908;37.880;2023-03-01T06:22:56;7.13;;;2.28;;
76589;SDS011;65471;55.908;37.880;2023-03-01T06:25:24;4.75;;;1.92;;
76589;SDS011;65471;55.908;37.880;2023-03-01T06:27:53;9.77;;;2.78;;
76589;SDS011;65471;55.908;37.880;2023-03-01T06:30:20;6.07;;;2.22;;
76589;SDS011;65471;55.908;37.880;2023-03-01T06:32:48;6.15;;;2.42;;
76589;SDS011;65471;55.908;37.880;2023-03-01T06:35:16;8.02;;;1.98;;
76589;SDS011;65471;55.908;37.880;2023-03-01T06:37:44;11.83;;;2.40;;
76589;SDS011;65471;55.908;37.880;2023-03-01T06:40:12;14.10;;;2.17;;
76589;SDS011;65471;55.908;37.880;2023-03-01T06:42:41;2.67;;;2.13;;
76589;SDS011;65471;55.908;37.880;2023-03-01T06:45:09;6.97;;;2.55;;
76589;SDS011;65471;55.908;37.880;2023-03-01T06:47:36;8.85;;;2.50;;
76589;SDS011;65471;55.908;37.880;2023-03-01T06:50:03;4.28;;;2.00;;
76589;SDS011;65471;55.908;37.880;2023-03-01T06:52:31;9.20;;;3.15;;
76589;SDS011;65471;55.908;37.880;2023-03-01T06:54:57;6.50;;;2.40;;
76589;SDS011;65471;55.908;37.880;2023-03-01T06:57:24;9.73;;;2.42;;
76589;SDS011;65471;55.908;37.880;2023-03-01T06:59:51;8.50;;;2.53;;
76589;SDS011;65471;55.908;37.880;2023-03-01T07:02:18;3.60;;;2.40;;
76589;SDS011;65471;55.908;37.880;2023-03-01T07:04:45;5.80;;;2.88;;
76589;SDS011;65471;55.908;37.880;2023-03-01T07:07:12;5.15;;;2.60;;
76589;SDS011;65471;55.908;37.880;2023-03-01T07:09:38;4.70;;;3.13;;
76589;SDS011;65471;55.908;37.880;2023-03-01T07:12:05;4.90;;;2.97;;
76589;SDS011;65471;55.908;37.880;2023-03-01T07:14:32;3.90;;;3.45;;
76589;SDS011;65471;55.908;37.880;2023-03-01T07:16:59;3.03;;;2.28;;
76589;SDS011;65471;55.908;37.880;2023-03-01T07:19:26;9.30;;;3.50;;
76589;SDS011;65471;55.908;37.880;2023-03-01T07:21:53;5.47;;;2.97;;
76589;SDS011;65471;55.908;37.880;2023-03-01T07:24:21;8.05;;;3.30;;
76589;SDS011;65471;55.908;37.880;2023-03-01T07:26:49;5.80;;;2.60;;
76589;SDS011;65471;55.908;37.880;2023-03-01T07:29:17;6.25;;;2.92;;
76589;SDS011;65471;55.908;37.880;2023-03-01T07:31:44;6.25;;;3.03;;
76589;SDS011;65471;55.908;37.880;2023-03-01T07:34:11;3.47;;;2.72;;
76589;SDS011;65471;55.908;37.880;2023-03-01T07:36:38;9.73;;;2.55;;
76589;SDS011;65471;55.908;37.880;2023-03-01T07:39:05;8.60;;;2.60;;
76589;SDS011;65471;55.908;37.880;2023-03-01T07:41:32;5.28;;;2.08;;
76589;SDS011;65471;55.908;37.880;2023-03-01T07:43:59;5.30;;;2.58;;
76589;SDS011;65471;55.908;37.880;2023-03-01T07:46:26;7.85;;;2.08;;
76589;SDS011;65471;55.908;37.880;2023-03-01T07:48:53;6.00;;;2.67;;
76589;SDS011;65471;55.908;37.880;2023-03-01T07:51:20;11.93;;;2.25;;
76589;SDS011;65471;55.908;37.880;2023-03-01T07:53:47;8.23;;;2.78;;
76589;SDS011;65471;55.908;37.880;2023-03-01T07:56:15;17.08;;;2.55;;
76589;SDS011;65471;55.908;37.880;2023-03-01T07:58:46;3.80;;;2.10;;
76589;SDS011;65471;55.908;37.880;2023-03-01T08:01:17;2.05;;;1.75;;
76589;SDS011;65471;55.908;37.880;2023-03-01T08:03:45;5.95;;;2.30;;
76589;SDS011;65471;55.908;37.880;2023-03-01T08:06:13;5.15;;;2.67;;
76589;SDS011;65471;55.908;37.880;2023-03-01T08:08:41;4.28;;;2.83;;
76589;SDS011;65471;55.908;37.880;2023-03-01T08:11:12;5.13;;;2.60;;
76589;SDS011;65471;55.908;37.880;2023-03-01T08:13:40;3.33;;;2.15;;
76589;SDS011;65471;55.908;37.880;2023-03-01T08:16:10;4.25;;;2.67;;
76589;SDS011;65471;55.908;37.880;2023-03-01T08:18:39;5.05;;;2.30;;
76589;SDS011;65471;55.908;37.880;2023-03-01T08:21:06;7.15;;;2.45;;
76589;SDS011;65471;55.908;37.880;2023-03-01T08:23:37;5.40;;;2.20;;
76589;SDS011;65471;55.908;37.880;2023-03-01T08:26:15;8.98;;;2.55;;
76589;SDS011;65471;55.908;37.880;2023-03-01T08:28:45;2.40;;;2.00;;
76589;SDS011;65471;55.908;37.880;2023-03-01T08:31:17;4.25;;;1.65;;
76589;SDS011;65471;55.908;37.880;2023-03-01T08:36:27;2.45;;;1.48;;
76589;SDS011;65471;55.908;37.880;2023-03-01T08:39:00;2.83;;;2.05;;
76589;SDS011;65471;55.908;37.880;2023-03-01T08:41:27;3.50;;;2.60;;
76589;SDS011;65471;55.908;37.880;2023-03-01T08:43:55;10.25;;;2.08;;
76589;SDS011;65471;55.908;37.880;2023-03-01T08:46:26;5.80;;;2.33;;
76589;SDS011;65471;55.908;37.880;2023-03-01T08:49:05;6.40;;;2.08;;
76589;SDS011;65471;55.908;37.880;2023-03-01T08:51:33;2.72;;;2.08;;
76589;SDS011;65471;55.908;37.880;2023-03-01T08:54:06;4.05;;;1.90;;
76589;SDS011;65471;55.908;37.880;2023-03-01T08:56:39;3.78;;;1.90;;
76589;SDS011;65471;55.908;37.880;2023-03-01T08:59:06;1.75;;;1.67;;
76589;SDS011;65471;55.908;37.880;2023-03-01T09:01:33;8.25;;;1.80;;
76589;SDS011;65471;55.908;37.880;2023-03-01T09:04:00;9.65;;;2.78;;
76589;SDS011;65471;55.908;37.880;2023-03-01T09:06:29;6.82;;;1.40;;
76589;SDS011;65471;55.908;37.880;2023-03-01T09:08:58;5.15;;;2.20;;
76589;SDS011;65471;55.908;37.880;2023-03-01T09:11:25;6.80;;;2.38;;
76589;SDS011;65471;55.908;37.880;2023-03-01T09:13:54;3.42;;;2.20;;
76589;SDS011;65471;55.908;37.880;2023-03-01T09:16:21;7.22;;;2.35;;
76589;SDS011;65471;55.908;37.880;2023-03-01T09:18:52;4.40;;;1.75;;
76589;SDS011;65471;55.908;37.880;2023-03-01T09:21:21;2.88;;;2.20;;
76589;SDS011;65471;55.908;37.880;2023-03-01T09:24:05;8.75;;;2.38;;
76589;SDS011;65471;55.908;37.880;2023-03-01T09:26:39;5.30;;;1.92;;
76589;SDS011;65471;55.908;37.880;2023-03-01T09:29:06;5.35;;;2.30;;
76589;SDS011;65471;55.908;37.880;2023-03-01T09:31:33;3.70;;;1.90;;
76589;SDS011;65471;55.908;37.880;2023-03-01T09:33:59;3.72;;;1.95;;
76589;SDS011;65471;55.908;37.880;2023-03-01T09:36:26;3.40;;;2.60;;
76589;SDS011;65471;55.908;37.880;2023-03-01T09:38:53;3.67;;;2.03;;
76589;SDS011;65471;55.908;37.880;2023-03-01T09:44:16;9.98;;;2.30;;
76589;SDS011;65471;55.908;37.880;2023-03-01T09:46:42;2.30;;;2.10;;
76589;SDS011;65471;55.908;37.880;2023-03-01T09:49:19;7.68;;;2.85;;
76589;SDS011;65471;55.908;37.880;2023-03-01T09:54:54;4.00;;;1.80;;
76589;SDS011;65471;55.908;37.880;2023-03-01T09:57:30;2.03;;;1.65;;
76589;SDS011;65471;55.908;37.880;2023-03-01T10:03:08;5.18;;;2.13;;
76589;SDS011;65471;55.908;37.880;2023-03-01T10:05:55;6.00;;;2.00;;
76589;SDS011;65471;55.908;37.880;2023-03-01T10:19:22;7.43;;;1.90;;
76589;SDS011;65471;55.908;37.880;2023-03-01T10:21:53;6.78;;;1.80;;
76589;SDS011;65471;55.908;37.880;2023-03-01T10:24:24;6.03;;;2.03;;
76589;SDS011;65471;55.908;37.880;2023-03-01T10:26:54;10.10;;;2.10;;
76589;SDS011;65471;55.908;37.880;2023-03-01T10:29:23;2.97;;;1.70;;
76589;SDS011;65471;55.908;37.880;2023-03-01T10:31:56;4.25;;;1.83;;
76589;SDS011;65471;55.908;37.880;2023-03-01T10:34:30;3.70;;;2.05;;
76589;SDS011;65471;55.908;37.880;2023-03-01T10:39:58;2.13;;;1.92;;
76589;SDS011;65471;55.908;37.880;2023-03-01T10:42:33;6.65;;;2.58;;
76589;SDS011;65471;55.908;37.880;2023-03-01T10:47:45;1.90;;;1.60;;
76589;SDS011;65471;55.908;37.880;2023-03-01T10:50:20;7.28;;;2.42;;
76589;SDS011;65471;55.908;37.880;2023-03-01T10:52:56;3.63;;;1.58;;
76589;SDS011;65471;55.908;37.880;2023-03-01T11:05:52;7.80;;;1.80;;
76589;SDS011;65471;55.908;37.880;2023-03-01T11:08:36;2.25;;;1.73;;
76589;SDS011;65471;55.908;37.880;2023-03-01T11:11:04;2.75;;;2.13;;
76589;SDS011;65471;55.908;37.880;2023-03-01T11:13:33;12.00;;;1.80;;
76589;SDS011;65471;55.908;37.880;2023-03-01T11:16:07;3.13;;;2.22;;
76589;SDS011;65471;55.908;37.880;2023-03-01T11:18:38;2.70;;;1.48;;
76589;SDS011;65471;55.908;37.880;2023-03-01T11:21:14;6.25;;;2.03;;
76589;SDS011;65471;55.908;37.880;2023-03-01T11:26:10;2.90;;;1.63;;
76589;SDS011;65471;55.908;37.880;2023-03-01T11:31:07;6.93;;;1.83;;
76589;SDS011;65471;55.908;37.880;2023-03-01T11:33:41;3.83;;;1.92;;
76589;SDS011;65471;55.908;37.880;2023-03-01T11:38:42;3.47;;;2.10;;
76589;SDS011;65471;55.908;37.880;2023-03-01T11:43:56;3.83;;;2.17;;
76589;SDS011;65471;55.908;37.880;2023-03-01T11:59:45;4.40;;;1.65;;
76589;SDS011;65471;55.908;37.880;2023-03-01T12:08:13;2.05;;;1.70;;
76589;SDS011;65471;55.908;37.880;2023-03-01T12:14:09;3.35;;;1.83;;
76589;SDS011;65471;55.908;37.880;2023-03-01T12:19:42;1.90;;;1.70;;
76589;SDS011;65471;55.908;37.880;2023-03-01T12:27:28;12.05;;;1.83;;
76589;SDS011;65471;55.908;37.880;2023-03-01T12:33:08;2.08;;;1.55;;
76589;SDS011;65471;55.908;37.880;2023-03-01T12:38:49;4.45;;;1.90;;
76589;SDS011;65471;55.908;37.880;2023-03-01T12:47:26;6.22;;;2.00;;
76589;SDS011;65471;55.908;37.880;2023-03-01T12:49:58;1.73;;;1.65;;
76589;SDS011;65471;55.908;37.880;2023-03-01T13:00:25;1.90;;;1.80;;
76589;SDS011;65471;55.908;37.880;2023-03-01T13:02:59;7.45;;;2.25;;
76589;SDS011;65471;55.908;37.880;2023-03-01T13:05:31;3.45;;;1.70;;
76589;SDS011;65471;55.908;37.880;2023-03-01T13:10:47;5.85;;;1.92;;
76589;SDS011;65471;55.908;37.880;2023-03-01T13:15:46;4.32;;;1.58;;
76589;SDS011;65471;55.908;37.880;2023-03-01T13:20:50;2.97;;;2.53;;
76589;SDS011;65471;55.908;37.880;2023-03-01T13:23:31;11.93;;;1.45;;
76589;SDS011;65471;55.908;37.880;2023-03-01T13:26:06;3.85;;;1.60;;
76589;SDS011;65471;55.908;37.880;2023-03-01T13:28:46;7.20;;;2.10;;
76589;SDS011;65471;55.908;37.880;2023-03-01T13:33:55;5.55;;;1.60;;
76589;SDS011;65471;55.908;37.880;2023-03-01T13:38:57;3.67;;;1.65;;
76589;SDS011;65471;55.908;37.880;2023-03-01T13:46:50;1.10;;;1.10;;
76589;SDS011;65471;55.908;37.880;2023-03-01T13:49:28;3.85;;;1.48;;
76589;SDS011;65471;55.908;37.880;2023-03-01T13:55:20;1.58;;;1.48;;
76589;SDS011;65471;55.908;37.880;2023-03-01T13:57:53;2.08;;;1.60;;
76589;SDS011;65471;55.908;37.880;2023-03-01T14:05:35;6.50;;;1.77;;
76589;SDS011;65471;55.908;37.880;2023-03-01T14:08:17;3.30;;;1.92;;
76589;SDS011;65471;55.908;37.880;2023-03-01T14:11:00;8.75;;;2.22;;
76589;SDS011;65471;55.908;37.880;2023-03-01T14:14:04;4.15;;;2.38;;
76589;SDS011;65471;55.908;37.880;2023-03-01T14:19:30;6.60;;;1.58;;
76589;SDS011;65471;55.908;37.880;2023-03-01T14:22:11;2.35;;;1.98;;
76589;SDS011;65471;55.908;37.880;2023-03-01T14:24:40;2.10;;;1.90;;
76589;SDS011;65471;55.908;37.880;2023-03-01T14:27:15;6.93;;;1.70;;
76589;SDS011;65471;55.908;37.880;2023-03-01T14:29:43;3.22;;;1.45;;
76589;SDS011;65471;55.908;37.880;2023-03-01T14:32:21;2.83;;;1.63;;
76589;SDS011;65471;55.908;37.880;2023-03-01T14:34:50;5.50;;;1.75;;
76589;SDS011;65471;55.908;37.880;2023-03-01T14:37:19;3.17;;;1.80;;
76589;SDS011;65471;55.908;37.880;2023-03-01T14:39:46;3.45;;;2.00;;
76589;SDS011;65471;55.908;37.880;2023-03-01T14:42:13;6.20;;;1.75;;
76589;SDS011;65471;55.908;37.880;2023-03-01T14:44:45;5.32;;;1.52;;
76589;SDS011;65471;55.908;37.880;2023-03-01T14:47:15;8.63;;;1.98;;
76589;SDS011;65471;55.908;37.880;2023-03-01T14:49:50;2.67;;;2.05;;
76589;SDS011;65471;55.908;37.880;2023-03-01T14:52:25;5.22;;;3.30;;
76589;SDS011;65471;55.908;37.880;2023-03-01T14:55:00;3.13;;;2.33;;
76589;SDS011;65471;55.908;37.880;2023-03-01T14:57:30;3.28;;;2.42;;
76589;SDS011;65471;55.908;37.880;2023-03-01T14:59:58;3.25;;;2.33;;
76589;SDS011;65471;55.908;37.880;2023-03-01T15:02:31;2.92;;;2.63;;
76589;SDS011;65471;55.908;37.880;2023-03-01T15:05:01;17.65;;;11.30;;
76589;SDS011;65471;55.908;37.880;2023-03-01T15:07:36;10.63;;;8.30;;
76589;SDS011;65471;55.908;37.880;2023-03-01T15:10:11;17.33;;;7.40;;
76589;SDS011;65471;55.908;37.880;2023-03-01T15:17:56;6.65;;;2.80;;
76589;SDS011;65471;55.908;37.880;2023-03-01T15:20:26;2.38;;;1.40;;
76589;SDS011;65471;55.908;37.880;2023-03-01T15:22:56;4.95;;;2.05;;
76589;SDS011;65471;55.908;37.880;2023-03-01T15:25:27;4.43;;;2.22;;
76589;SDS011;65471;55.908;37.880;2023-03-01T15:27:55;2.95;;;2.33;;
76589;SDS011;65471;55.908;37.880;2023-03-01T15:30:28;2.05;;;1.70;;
76589;SDS011;65471;55.908;37.880;2023-03-01T15:33:25;2.60;;;2.38;;
76589;SDS011;65471;55.908;37.880;2023-03-01T15:35:56;4.20;;;2.67;;
76589;SDS011;65471;55.908;37.880;2023-03-01T15:40:56;5.95;;;2.67;;
76589;SDS011;65471;55.908;37.880;2023-03-01T15:43:39;3.15;;;2.83;;
76589;SDS011;65471;55.908;37.880;2023-03-01T15:46:17;5.35;;;2.50;;
76589;SDS011;65471;55.908;37.880;2023-03-01T15:48:47;2.40;;;2.20;;
76589;SDS011;65471;55.908;37.880;2023-03-01T15:51:20;5.88;;;2.45;;
76589;SDS011;65471;55.908;37.880;2023-03-01T15:53:53;3.13;;;2.03;;
76589;SDS011;65471;55.908;37.880;2023-03-01T15:56:20;3.90;;;2.50;;
76589;SDS011;65471;55.908;37.880;2023-03-01T15:58:47;2.55;;;2.17;;
76589;SDS011;65471;55.908;37.880;2023-03-01T16:01:14;3.53;;;2.40;;
76589;SDS011;65471;55.908;37.880;2023-03-01T16:03:43;5.55;;;2.95;;
76589;SDS011;65471;55.908;37.880;2023-03-01T16:06:11;7.40;;;3.13;;
76589;SDS011;65471;55.908;37.880;2023-03-01T16:08:38;14.27;;;2.15;;
76589;SDS011;65471;55.908;37.880;2023-03-01T16:11:05;7.10;;;2.35;;
76589;SDS011;65471;55.908;37.880;2023-03-01T16:13:40;2.13;;;2.03;;
76589;SDS011;65471;55.908;37.880;2023-03-01T16:16:07;3.05;;;2.47;;
76589;SDS011;65471;55.908;37.880;2023-03-01T16:18:38;7.22;;;2.25;;
76589;SDS011;65471;55.908;37.880;2023-03-01T16:21:05;3.38;;;2.35;;
76589;SDS011;65471;55.908;37.880;2023-03-01T16:23:32;3.47;;;2.38;;
76589;SDS011;65471;55.908;37.880;2023-03-01T16:25:59;4.40;;;2.05;;
76589;SDS011;65471;55.908;37.880;2023-03-01T16:28:26;9.45;;;2.92;;
76589;SDS011;65471;55.908;37.880;2023-03-01T16:30:55;6.13;;;3.53;;
76589;SDS011;65471;55.908;37.880;2023-03-01T16:33:22;8.88;;;5.78;;
76589;SDS011;65471;55.908;37.880;2023-03-01T16:35:58;3.35;;;2.60;;
76589;SDS011;65471;55.908;37.880;2023-03-01T16:38:26;5.13;;;3.05;;
76589;SDS011;65471;55.908;37.880;2023-03-01T16:40:53;4.72;;;3.35;;
76589;SDS011;65471;55.908;37.880;2023-03-01T16:43:20;5.68;;;3.33;;
76589;SDS011;65471;55.908;37.880;2023-03-01T16:45:47;7.05;;;4.13;;
76589;SDS011;65471;55.908;37.880;2023-03-01T16:48:14;5.57;;;2.30;;
76589;SDS011;65471;55.908;37.880;2023-03-01T16:50:41;4.03;;;3.15;;
76589;SDS011;65471;55.908;37.880;2023-03-01T16:53:08;7.10;;;3.10;;
76589;SDS011;65471;55.908;37.880;2023-03-01T16:55:35;3.05;;;2.35;;
76589;SDS011;65471;55.908;37.880;2023-03-01T16:58:02;3.28;;;2.25;;
76589;SDS011;65471;55.908;37.880;2023-03-01T17:00:30;4.88;;;2.50;;
76589;SDS011;65471;55.908;37.880;2023-03-01T17:02:57;7.72;;;2.28;;
76589;SDS011;65471;55.908;37.880;2023-03-01T17:05:24;4.03;;;1.88;;
76589;SDS011;65471;55.908;37.880;2023-03-01T17:07:52;5.00;;;2.38;;
76589;SDS011;65471;55.908;37.880;2023-03-01T17:10:22;4.40;;;2.03;;
76589;SDS011;65471;55.908;37.880;2023-03-01T17:12:48;3.38;;;2.05;;
76589;SDS011;65471;55.908;37.880;2023-03-01T17:15:16;5.68;;;1.88;;